sensor_id;sensor_type;location;lat;lon;timestamp;temperature;humidity
78904;DHT22;68291;49.602;8.722;2023-09-19T00:00:46;19.90;99.90
78904;DHT22;68291;49.602;8.722;2023-09-19T00:03:45;19.90;99.90
78904;DHT22;68291;49.602;8.722;2023-09-19T00:06:38;19.90;99.90
78904;DHT22;68291;49.602;8.722;2023-09-19T00:09:39;19.90;99.90
78904;DHT22;68291;49.602;8.722;2023-09-19T00:12:43;19.90;99.90
78904;DHT22;68291;49.602;8.722;2023-09-19T00:15:38;19.90;99.90
78904;DHT22;68291;49.602;8.722;2023-09-19T00:18:13;19.90;99.90
78904;DHT22;68291;49.602;8.722;2023-09-19T00:21:34;19.90;99.90
78904;DHT22;68291;49.602;8.722;2023-09-19T00:24:32;19.90;99.90
78904;DHT22;68291;49.602;8.722;2023-09-19T00:27:26;19.90;99.90
78904;DHT22;68291;49.602;8.722;2023-09-19T00:30:08;19.90;99.90
78904;DHT22;68291;49.602;8.722;2023-09-19T00:32:59;19.90;99.90
78904;DHT22;68291;49.602;8.722;2023-09-19T00:35:56;19.90;99.90
78904;DHT22;68291;49.602;8.722;2023-09-19T00:38:50;20.00;99.90
78904;DHT22;68291;49.602;8.722;2023-09-19T00:41:31;20.00;99.90
78904;DHT22;68291;49.602;8.722;2023-09-19T00:44:34;20.00;99.90
78904;DHT22;68291;49.602;8.722;2023-09-19T00:47:28;20.00;99.90
78904;DHT22;68291;49.602;8.722;2023-09-19T00:50:27;20.00;99.90
78904;DHT22;68291;49.602;8.722;2023-09-19T00:53:15;20.10;99.90
78904;DHT22;68291;49.602;8.722;2023-09-19T00:55:59;20.10;99.90
78904;DHT22;68291;49.602;8.722;2023-09-19T00:58:32;20.10;99.90
78904;DHT22;68291;49.602;8.722;2023-09-19T01:01:05;20.10;99.90
78904;DHT22;68291;49.602;8.722;2023-09-19T01:03:54;20.10;99.90
78904;DHT22;68291;49.602;8.722;2023-09-19T01:06:44;20.10;99.90
78904;DHT22;68291;49.602;8.722;2023-09-19T01:09:31;20.10;99.90
78904;DHT22;68291;49.602;8.722;2023-09-19T01:12:41;20.10;99.90
78904;DHT22;68291;49.602;8.722;2023-09-19T01:15:55;20.10;99.90
78904;DHT22;68291;49.602;8.722;2023-09-19T01:22:30;20.20;99.90
78904;DHT22;68291;49.602;8.722;2023-09-19T01:25:42;20.20;99.90
78904;DHT22;68291;49.602;8.722;2023-09-19T01:29:07;20.20;99.90
78904;DHT22;68291;49.602;8.722;2023-09-19T01:32:17;20.20;99.90
78904;DHT22;68291;49.602;8.722;2023-09-19T01:35:04;20.20;99.90
78904;DHT22;68291;49.602;8.722;2023-09-19T01:37:48;20.20;99.90
78904;DHT22;68291;49.602;8.722;2023-09-19T01:40:55;20.10;99.90
78904;DHT22;68291;49.602;8.722;2023-09-19T01:43:42;20.10;99.90
78904;DHT22;68291;49.602;8.722;2023-09-19T01:46:32;20.10;99.90
78904;DHT22;68291;49.602;8.722;2023-09-19T01:49:40;20.10;99.90
78904;DHT22;68291;49.602;8.722;2023-09-19T01:52:30;20.10;99.90
78904;DHT22;68291;49.602;8.722;2023-09-19T01:55:15;20.10;99.90
78904;DHT22;68291;49.602;8.722;2023-09-19T01:58:17;20.00;99.90
78904;DHT22;68291;49.602;8.722;2023-09-19T02:01:12;20.00;99.90
78904;DHT22;68291;49.602;8.722;2023-09-19T02:04:05;20.00;99.90
78904;DHT22;68291;49.602;8.722;2023-09-19T02:06:42;19.90;99.90
78904;DHT22;68291;49.602;8.722;2023-09-19T02:09:30;19.90;99.90
78904;DHT22;68291;49.602;8.722;2023-09-19T02:12:06;19.80;99.90
78904;DHT22;68291;49.602;8.722;2023-09-19T02:14:49;19.80;99.90
78904;DHT22;68291;49.602;8.722;2023-09-19T02:17:45;19.80;99.90
78904;DHT22;68291;49.602;8.722;2023-09-19T02:20:55;19.70;99.90
78904;DHT22;68291;49.602;8.722;2023-09-19T02:23:59;19.70;99.90
78904;DHT22;68291;49.602;8.722;2023-09-19T02:26:44;19.70;99.90
78904;DHT22;68291;49.602;8.722;2023-09-19T02:29:31;19.70;99.90
78904;DHT22;68291;49.602;8.722;2023-09-19T02:32:18;19.70;99.90
78904;DHT22;68291;49.602;8.722;2023-09-19T02:35:10;19.70;99.90
78904;DHT22;68291;49.602;8.722;2023-09-19T02:38:07;19.60;99.90
78904;DHT22;68291;49.602;8.722;2023-09-19T02:41:23;19.60;99.90
78904;DHT22;68291;49.602;8.722;2023-09-19T02:44:05;19.60;99.90
78904;DHT22;68291;49.602;8.722;2023-09-19T02:46:43;19.50;99.90
78904;DHT22;68291;49.602;8.722;2023-09-19T02:49:17;19.50;99.90
78904;DHT22;68291;49.602;8.722;2023-09-19T02:51:53;19.50;99.90
78904;DHT22;68291;49.602;8.722;2023-09-19T02:54:42;19.50;99.90
78904;DHT22;68291;49.602;8.722;2023-09-19T02:57:43;19.40;99.90
78904;DHT22;68291;49.602;8.722;2023-09-19T03:00:35;19.40;99.90
78904;DHT22;68291;49.602;8.722;2023-09-19T03:03:18;19.40;99.90
78904;DHT22;68291;49.602;8.722;2023-09-19T03:06:02;19.40;99.90
78904;DHT22;68291;49.602;8.722;2023-09-19T03:08:47;19.40;99.90
78904;DHT22;68291;49.602;8.722;2023-09-19T03:11:37;19.50;99.90
78904;DHT22;68291;49.602;8.722;2023-09-19T03:14:30;19.40;99.90
78904;DHT22;68291;49.602;8.722;2023-09-19T03:17:15;19.40;99.90
78904;DHT22;68291;49.602;8.722;2023-09-19T03:19:59;19.40;99.90
78904;DHT22;68291;49.602;8.722;2023-09-19T03:22:33;19.40;99.90
78904;DHT22;68291;49.602;8.722;2023-09-19T03:25:17;19.40;99.90
78904;DHT22;68291;49.602;8.722;2023-09-19T03:28:06;19.40;99.90
78904;DHT22;68291;49.602;8.722;2023-09-19T03:30:41;19.40;99.90
78904;DHT22;68291;49.602;8.722;2023-09-19T03:33:20;19.40;99.90
78904;DHT22;68291;49.602;8.722;2023-09-19T03:36:05;19.30;99.90
78904;DHT22;68291;49.602;8.722;2023-09-19T03:38:44;19.30;99.90
78904;DHT22;68291;49.602;8.722;2023-09-19T03:41:22;19.30;99.90
78904;DHT22;68291;49.602;8.722;2023-09-19T03:43:54;19.30;99.90
78904;DHT22;68291;49.602;8.722;2023-09-19T03:47:26;19.30;99.90
78904;DHT22;68291;49.602;8.722;2023-09-19T03:50:20;19.20;99.90
78904;DHT22;68291;49.602;8.722;2023-09-19T03:53:01;19.20;99.90
78904;DHT22;68291;49.602;8.722;2023-09-19T03:55:36;19.10;99.90
78904;DHT22;68291;49.602;8.722;2023-09-19T03:58:37;19.10;99.90
78904;DHT22;68291;49.602;8.722;2023-09-19T04:01:19;19.00;99.90
78904;DHT22;68291;49.602;8.722;2023-09-19T04:04:16;19.00;99.90
78904;DHT22;68291;49.602;8.722;2023-09-19T04:07:09;19.00;99.90
78904;DHT22;68291;49.602;8.722;2023-09-19T04:09:48;19.00;99.90
78904;DHT22;68291;49.602;8.722;2023-09-19T04:12:38;18.90;99.90
78904;DHT22;68291;49.602;8.722;2023-09-19T04:15:38;18.90;99.90
78904;DHT22;68291;49.602;8.722;2023-09-19T04:18:32;18.90;99.90
78904;DHT22;68291;49.602;8.722;2023-09-19T04:21:13;18.90;99.90
78904;DHT22;68291;49.602;8.722;2023-09-19T04:23:47;18.90;99.90
78904;DHT22;68291;49.602;8.722;2023-09-19T04:26:32;18.80;99.90
78904;DHT22;68291;49.602;8.722;2023-09-19T04:29:26;18.80;99.90
78904;DHT22;68291;49.602;8.722;2023-09-19T04:32:07;18.80;99.90
78904;DHT22;68291;49.602;8.722;2023-09-19T04:34:56;18.70;99.90
78904;DHT22;68291;49.602;8.722;2023-09-19T04:37:53;18.70;99.90
78904;DHT22;68291;49.602;8.722;2023-09-19T04:40:30;18.70;99.90
78904;DHT22;68291;49.602;8.722;2023-09-19T04:43:13;18.60;99.90
78904;DHT22;68291;49.602;8.722;2023-09-19T04:46:10;18.60;99.90
78904;DHT22;68291;49.602;8.722;2023-09-19T04:49:07;18.50;99.90
78904;DHT22;68291;49.602;8.722;2023-09-19T04:52:04;18.50;99.90
78904;DHT22;68291;49.602;8.722;2023-09-19T04:55:00;18.40;99.90
78904;DHT22;68291;49.602;8.722;2023-09-19T04:57:57;18.40;99.90
78904;DHT22;68291;49.602;8.722;2023-09-19T05:00:47;18.30;99.90
78904;DHT22;68291;49.602;8.722;2023-09-19T05:03:44;18.30;99.90
78904;DHT22;68291;49.602;8.722;2023-09-19T05:06:40;18.30;99.90
78904;DHT22;68291;49.602;8.722;2023-09-19T05:09:35;18.20;99.90
78904;DHT22;68291;49.602;8.722;2023-09-19T05:12:39;18.20;99.90
78904;DHT22;68291;49.602;8.722;2023-09-19T05:15:31;18.20;99.90
78904;DHT22;68291;49.602;8.722;2023-09-19T05:18:14;18.10;99.90
78904;DHT22;68291;49.602;8.722;2023-09-19T05:21:02;18.10;99.90
78904;DHT22;68291;49.602;8.722;2023-09-19T05:23:58;18.00;99.90
78904;DHT22;68291;49.602;8.722;2023-09-19T05:26:40;18.00;99.90
78904;DHT22;68291;49.602;8.722;2023-09-19T05:29:14;17.90;99.90
78904;DHT22;68291;49.602;8.722;2023-09-19T05:32:12;17.90;99.90
78904;DHT22;68291;49.602;8.722;2023-09-19T05:35:07;17.90;99.90
78904;DHT22;68291;49.602;8.722;2023-09-19T05:38:00;17.90;99.90
78904;DHT22;68291;49.602;8.722;2023-09-19T05:40:51;17.90;99.90
78904;DHT22;68291;49.602;8.722;2023-09-19T05:43:36;17.90;99.90
78904;DHT22;68291;49.602;8.722;2023-09-19T05:46:42;18.00;99.90
78904;DHT22;68291;49.602;8.722;2023-09-19T05:49:27;18.00;99.90
78904;DHT22;68291;49.602;8.722;2023-09-19T05:52:01;18.00;99.90
78904;DHT22;68291;49.602;8.722;2023-09-19T05:54:41;18.00;99.90
78904;DHT22;68291;49.602;8.722;2023-09-19T05:57:22;18.10;99.90
78904;DHT22;68291;49.602;8.722;2023-09-19T06:00:15;18.10;99.90
78904;DHT22;68291;49.602;8.722;2023-09-19T06:02:55;18.20;99.90
78904;DHT22;68291;49.602;8.722;2023-09-19T06:05:51;18.20;99.90
78904;DHT22;68291;49.602;8.722;2023-09-19T06:08:29;18.20;99.90
78904;DHT22;68291;49.602;8.722;2023-09-19T06:11:19;18.30;99.90
78904;DHT22;68291;49.602;8.722;2023-09-19T06:14:18;18.30;99.90
78904;DHT22;68291;49.602;8.722;2023-09-19T06:16:51;18.30;99.90
78904;DHT22;68291;49.602;8.722;2023-09-19T06:19:49;18.40;99.90
78904;DHT22;68291;49.602;8.722;2023-09-19T06:22:46;18.40;99.90
78904;DHT22;68291;49.602;8.722;2023-09-19T06:25:42;18.40;99.90
78904;DHT22;68291;49.602;8.722;2023-09-19T06:28:20;18.50;99.90
78904;DHT22;68291;49.602;8.722;2023-09-19T06:30:56;18.50;99.90
78904;DHT22;68291;49.602;8.722;2023-09-19T06:33:41;18.60;99.90
78904;DHT22;68291;49.602;8.722;2023-09-19T06:36:34;18.60;99.90
78904;DHT22;68291;49.602;8.722;2023-09-19T06:39:30;18.70;99.90
78904;DHT22;68291;49.602;8.722;2023-09-19T06:42:09;18.80;99.90
78904;DHT22;68291;49.602;8.722;2023-09-19T06:44:51;18.80;99.90
78904;DHT22;68291;49.602;8.722;2023-09-19T06:47:42;18.90;99.90
78904;DHT22;68291;49.602;8.722;2023-09-19T06:50:38;19.00;99.90
78904;DHT22;68291;49.602;8.722;2023-09-19T06:53:27;19.00;99.90
78904;DHT22;68291;49.602;8.722;2023-09-19T06:56:18;19.10;99.90
78904;DHT22;68291;49.602;8.722;2023-09-19T06:59:11;19.10;99.90
78904;DHT22;68291;49.602;8.722;2023-09-19T07:01:49;19.20;99.90
78904;DHT22;68291;49.602;8.722;2023-09-19T07:04:32;19.20;99.90
78904;DHT22;68291;49.602;8.722;2023-09-19T07:07:29;19.30;99.90
78904;DHT22;68291;49.602;8.722;2023-09-19T07:10:22;19.30;99.90
78904;DHT22;68291;49.602;8.722;2023-09-19T07:13:11;19.40;99.90
78904;DHT22;68291;49.602;8.722;2023-09-19T07:16:02;19.40;99.90
78904;DHT22;68291;49.602;8.722;2023-09-19T07:18:43;19.40;99.90
78904;DHT22;68291;49.602;8.722;2023-09-19T07:21:34;19.40;99.90
78904;DHT22;68291;49.602;8.722;2023-09-19T07:24:17;19.50;99.90
78904;DHT22;68291;49.602;8.722;2023-09-19T07:30:24;19.60;99.90
78904;DHT22;68291;49.602;8.722;2023-09-19T07:33:20;19.60;99.90
78904;DHT22;68291;49.602;8.722;2023-09-19T07:35:56;19.70;99.90
78904;DHT22;68291;49.602;8.722;2023-09-19T07:38:54;19.70;99.90
78904;DHT22;68291;49.602;8.722;2023-09-19T07:41:44;19.80;99.90
78904;DHT22;68291;49.602;8.722;2023-09-19T07:44:35;19.80;99.90
78904;DHT22;68291;49.602;8.722;2023-09-19T07:47:21;19.80;99.90
78904;DHT22;68291;49.602;8.722;2023-09-19T07:50:03;19.90;99.90
78904;DHT22;68291;49.602;8.722;2023-09-19T07:52:59;19.90;99.90
78904;DHT22;68291;49.602;8.722;2023-09-19T07:56:03;19.90;99.90
78904;DHT22;68291;49.602;8.722;2023-09-19T07:59:00;20.00;99.90
78904;DHT22;68291;49.602;8.722;2023-09-19T08:02:02;20.00;99.90
78904;DHT22;68291;49.602;8.722;2023-09-19T08:04:58;20.10;99.90
78904;DHT22;68291;49.602;8.722;2023-09-19T08:07:58;20.10;99.90
78904;DHT22;68291;49.602;8.722;2023-09-19T08:10:43;20.20;99.90
78904;DHT22;68291;49.602;8.722;2023-09-19T08:13:18;20.30;99.90
78904;DHT22;68291;49.602;8.722;2023-09-19T08:16:05;20.40;99.90
78904;DHT22;68291;49.602;8.722;2023-09-19T08:19:11;20.40;99.90
78904;DHT22;68291;49.602;8.722;2023-09-19T08:22:11;20.40;99.90
78904;DHT22;68291;49.602;8.722;2023-09-19T08:25:05;20.50;99.90
78904;DHT22;68291;49.602;8.722;2023-09-19T08:28:02;20.50;99.90
78904;DHT22;68291;49.602;8.722;2023-09-19T08:31:02;20.50;99.90
78904;DHT22;68291;49.602;8.722;2023-09-19T08:33:36;20.50;99.90
78904;DHT22;68291;49.602;8.722;2023-09-19T08:36:43;20.50;99.90
78904;DHT22;68291;49.602;8.722;2023-09-19T08:39:45;20.50;99.90
78904;DHT22;68291;49.602;8.722;2023-09-19T08:42:26;20.50;99.90
78904;DHT22;68291;49.602;8.722;2023-09-19T08:45:18;20.50;99.90
78904;DHT22;68291;49.602;8.722;2023-09-19T08:48:22;20.60;99.90
78904;DHT22;68291;49.602;8.722;2023-09-19T08:51:12;20.60;99.90
78904;DHT22;68291;49.602;8.722;2023-09-19T08:57:36;20.70;99.90
78904;DHT22;68291;49.602;8.722;2023-09-19T09:00:16;20.70;99.90
78904;DHT22;68291;49.602;8.722;2023-09-19T09:02:59;20.70;99.90
78904;DHT22;68291;49.602;8.722;2023-09-19T09:05:42;20.70;99.90
78904;DHT22;68291;49.602;8.722;2023-09-19T09:08:26;20.70;99.90
78904;DHT22;68291;49.602;8.722;2023-09-19T09:14:46;20.80;99.90
78904;DHT22;68291;49.602;8.722;2023-09-19T09:17:47;20.80;99.90
78904;DHT22;68291;49.602;8.722;2023-09-19T09:20:37;20.80;99.90
78904;DHT22;68291;49.602;8.722;2023-09-19T09:23:15;20.80;99.90
78904;DHT22;68291;49.602;8.722;2023-09-19T09:26:02;20.80;99.90
78904;DHT22;68291;49.602;8.722;2023-09-19T09:32:23;20.80;99.90
78904;DHT22;68291;49.602;8.722;2023-09-19T09:35:08;20.90;99.90
78904;DHT22;68291;49.602;8.722;2023-09-19T09:37:59;20.90;99.90
78904;DHT22;68291;49.602;8.722;2023-09-19T09:41:00;20.90;99.90
78904;DHT22;68291;49.602;8.722;2023-09-19T09:43:50;20.90;99.90
78904;DHT22;68291;49.602;8.722;2023-09-19T09:46:47;21.00;99.90
78904;DHT22;68291;49.602;8.722;2023-09-19T09:49:48;21.00;99.90
78904;DHT22;68291;49.602;8.722;2023-09-19T09:52:51;21.00;99.90
78904;DHT22;68291;49.602;8.722;2023-09-19T09:55:58;21.00;99.90
78904;DHT22;68291;49.602;8.722;2023-09-19T09:58:34;21.00;99.90
78904;DHT22;68291;49.602;8.722;2023-09-19T10:01:22;21.00;99.90
78904;DHT22;68291;49.602;8.722;2023-09-19T10:04:27;21.00;99.90
78904;DHT22;68291;49.602;8.722;2023-09-19T10:07:25;21.00;99.90
78904;DHT22;68291;49.602;8.722;2023-09-19T10:10:32;21.10;99.90
78904;DHT22;68291;49.602;8.722;2023-09-19T10:13:35;21.10;99.90
78904;DHT22;68291;49.602;8.722;2023-09-19T10:16:40;21.10;99.90
78904;DHT22;68291;49.602;8.722;2023-09-19T10:19:23;21.10;99.90
78904;DHT22;68291;49.602;8.722;2023-09-19T10:22:17;21.10;99.90
78904;DHT22;68291;49.602;8.722;2023-09-19T10:25:09;21.20;99.90
78904;DHT22;68291;49.602;8.722;2023-09-19T10:27:49;21.20;99.90
78904;DHT22;68291;49.602;8.722;2023-09-19T10:30:41;21.30;99.90
78904;DHT22;68291;49.602;8.722;2023-09-19T10:33:36;21.40;99.90
78904;DHT22;68291;49.602;8.722;2023-09-19T10:36:17;21.50;99.90
78904;DHT22;68291;49.602;8.722;2023-09-19T10:38:58;21.60;99.90
78904;DHT22;68291;49.602;8.722;2023-09-19T10:41:37;21.70;99.90
78904;DHT22;68291;49.602;8.722;2023-09-19T10:44:32;21.80;99.90
78904;DHT22;68291;49.602;8.722;2023-09-19T10:47:10;22.00;99.90
78904;DHT22;68291;49.602;8.722;2023-09-19T10:50:01;22.10;99.90
78904;DHT22;68291;49.602;8.722;2023-09-19T10:52:51;22.10;99.90
78904;DHT22;68291;49.602;8.722;2023-09-19T10:55:39;22.30;99.90
78904;DHT22;68291;49.602;8.722;2023-09-19T10:58:27;22.40;99.90
78904;DHT22;68291;49.602;8.722;2023-09-19T11:01:09;22.50;99.90
78904;DHT22;68291;49.602;8.722;2023-09-19T11:04:26;22.50;99.90
78904;DHT22;68291;49.602;8.722;2023-09-19T11:07:10;22.60;99.90
78904;DHT22;68291;49.602;8.722;2023-09-19T11:09:52;22.70;99.90
78904;DHT22;68291;49.602;8.722;2023-09-19T11:12:49;22.70;99.90
78904;DHT22;68291;49.602;8.722;2023-09-19T11:18:55;23.00;99.90
78904;DHT22;68291;49.602;8.722;2023-09-19T11:21:52;23.10;99.90
78904;DHT22;68291;49.602;8.722;2023-09-19T11:24:51;23.10;99.90
78904;DHT22;68291;49.602;8.722;2023-09-19T11:27:32;23.20;99.90
78904;DHT22;68291;49.602;8.722;2023-09-19T11:30:28;23.30;99.90
78904;DHT22;68291;49.602;8.722;2023-09-19T11:33:17;23.40;99.90
78904;DHT22;68291;49.602;8.722;2023-09-19T11:36:03;23.40;99.90
78904;DHT22;68291;49.602;8.722;2023-09-19T11:38:59;23.50;99.90
78904;DHT22;68291;49.602;8.722;2023-09-19T11:41:57;23.50;99.90
78904;DHT22;68291;49.602;8.722;2023-09-19T11:44:47;23.50;99.90
78904;DHT22;68291;49.602;8.722;2023-09-19T11:47:39;23.50;99.90
78904;DHT22;68291;49.602;8.722;2023-09-19T11:50:20;23.50;99.90
78904;DHT22;68291;49.602;8.722;2023-09-19T11:53:11;23.50;99.90
78904;DHT22;68291;49.602;8.722;2023-09-19T11:55:51;23.50;99.90
78904;DHT22;68291;49.602;8.722;2023-09-19T11:58:52;23.50;99.90
78904;DHT22;68291;49.602;8.722;2023-09-19T12:01:34;23.60;99.90
78904;DHT22;68291;49.602;8.722;2023-09-19T12:04:12;23.60;99.90
78904;DHT22;68291;49.602;8.722;2023-09-19T12:07:00;23.60;99.90
78904;DHT22;68291;49.602;8.722;2023-09-19T12:09:49;23.70;99.90
78904;DHT22;68291;49.602;8.722;2023-09-19T12:12:59;23.70;99.90
78904;DHT22;68291;49.602;8.722;2023-09-19T12:16:00;23.90;99.90
78904;DHT22;68291;49.602;8.722;2023-09-19T12:18:37;23.80;99.90
78904;DHT22;68291;49.602;8.722;2023-09-19T12:21:34;23.90;99.90
78904;DHT22;68291;49.602;8.722;2023-09-19T12:24:25;23.90;99.90
78904;DHT22;68291;49.602;8.722;2023-09-19T12:27:20;24.00;99.90
78904;DHT22;68291;49.602;8.722;2023-09-19T12:30:01;24.20;99.90
78904;DHT22;68291;49.602;8.722;2023-09-19T12:33:19;24.30;99.90
78904;DHT22;68291;49.602;8.722;2023-09-19T12:36:03;24.40;99.90
78904;DHT22;68291;49.602;8.722;2023-09-19T12:38:55;24.50;99.90
78904;DHT22;68291;49.602;8.722;2023-09-19T12:41:43;24.60;99.90
78904;DHT22;68291;49.602;8.722;2023-09-19T12:44:20;24.70;99.50
78904;DHT22;68291;49.602;8.722;2023-09-19T12:47:18;24.80;98.80
78904;DHT22;68291;49.602;8.722;2023-09-19T12:50:17;24.70;99.30
78904;DHT22;68291;49.602;8.722;2023-09-19T12:53:26;24.70;97.40
78904;DHT22;68291;49.602;8.722;2023-09-19T12:56:26;24.70;97.30
78904;DHT22;68291;49.602;8.722;2023-09-19T12:59:06;24.70;98.80
78904;DHT22;68291;49.602;8.722;2023-09-19T13:02:03;24.70;98.50
78904;DHT22;68291;49.602;8.722;2023-09-19T13:04:52;24.70;98.80
78904;DHT22;68291;49.602;8.722;2023-09-19T13:07:48;24.80;96.60
78904;DHT22;68291;49.602;8.722;2023-09-19T13:10:26;24.90;97.60
78904;DHT22;68291;49.602;8.722;2023-09-19T13:13:24;25.00;97.90
78904;DHT22;68291;49.602;8.722;2023-09-19T13:16:14;25.00;98.60
78904;DHT22;68291;49.602;8.722;2023-09-19T13:19:10;25.20;98.80
78904;DHT22;68291;49.602;8.722;2023-09-19T13:25:21;25.60;98.90
78904;DHT22;68291;49.602;8.722;2023-09-19T13:28:18;26.00;98.70
78904;DHT22;68291;49.602;8.722;2023-09-19T13:31:06;26.30;97.80
78904;DHT22;68291;49.602;8.722;2023-09-19T13:33:47;26.50;97.50
78904;DHT22;68291;49.602;8.722;2023-09-19T13:36:24;26.70;94.30
78904;DHT22;68291;49.602;8.722;2023-09-19T13:39:18;26.70;94.50
78904;DHT22;68291;49.602;8.722;2023-09-19T13:42:04;26.60;94.30
78904;DHT22;68291;49.602;8.722;2023-09-19T13:44:48;26.50;93.80
78904;DHT22;68291;49.602;8.722;2023-09-19T13:47:40;26.40;94.10
78904;DHT22;68291;49.602;8.722;2023-09-19T13:50:26;26.30;94.80
78904;DHT22;68291;49.602;8.722;2023-09-19T13:53:06;26.30;95.00
78904;DHT22;68291;49.602;8.722;2023-09-19T13:55:47;26.40;94.70
78904;DHT22;68291;49.602;8.722;2023-09-19T13:58:35;26.50;95.00
78904;DHT22;68291;49.602;8.722;2023-09-19T14:01:20;26.60;94.10
78904;DHT22;68291;49.602;8.722;2023-09-19T14:03:58;26.90;95.40
78904;DHT22;68291;49.602;8.722;2023-09-19T14:06:42;27.10;94.20
78904;DHT22;68291;49.602;8.722;2023-09-19T14:09:24;27.20;94.20
78904;DHT22;68291;49.602;8.722;2023-09-19T14:12:12;27.20;93.40
78904;DHT22;68291;49.602;8.722;2023-09-19T14:15:18;27.20;93.70
78904;DHT22;68291;49.602;8.722;2023-09-19T14:18:05;27.10;92.60
78904;DHT22;68291;49.602;8.722;2023-09-19T14:20:43;26.90;93.40
78904;DHT22;68291;49.602;8.722;2023-09-19T14:23:23;26.70;93.10
78904;DHT22;68291;49.602;8.722;2023-09-19T14:25:55;26.50;93.40
78904;DHT22;68291;49.602;8.722;2023-09-19T14:28:31;26.30;92.90
78904;DHT22;68291;49.602;8.722;2023-09-19T14:31:27;26.20;93.50
78904;DHT22;68291;49.602;8.722;2023-09-19T14:34:29;26.00;93.50
78904;DHT22;68291;49.602;8.722;2023-09-19T14:37:11;26.00;94.10
78904;DHT22;68291;49.602;8.722;2023-09-19T14:39:43;26.00;93.20
78904;DHT22;68291;49.602;8.722;2023-09-19T14:42:21;26.00;93.30
78904;DHT22;68291;49.602;8.722;2023-09-19T14:45:03;25.80;93.40
78904;DHT22;68291;49.602;8.722;2023-09-19T14:47:51;25.70;94.10
78904;DHT22;68291;49.602;8.722;2023-09-19T14:50:48;25.60;93.80
78904;DHT22;68291;49.602;8.722;2023-09-19T14:53:30;25.50;94.10
78904;DHT22;68291;49.602;8.722;2023-09-19T14:56:10;25.40;93.90
78904;DHT22;68291;49.602;8.722;2023-09-19T14:59:16;25.30;93.70
78904;DHT22;68291;49.602;8.722;2023-09-19T15:02:05;25.10;94.20
78904;DHT22;68291;49.602;8.722;2023-09-19T15:05:08;25.00;94.40
78904;DHT22;68291;49.602;8.722;2023-09-19T15:07:47;24.90;94.00
78904;DHT22;68291;49.602;8.722;2023-09-19T15:10:26;24.80;94.20
78904;DHT22;68291;49.602;8.722;2023-09-19T15:13:02;24.70;94.90
78904;DHT22;68291;49.602;8.722;2023-09-19T15:15:45;24.70;95.00
78904;DHT22;68291;49.602;8.722;2023-09-19T15:18:20;24.80;95.10
78904;DHT22;68291;49.602;8.722;2023-09-19T15:21:09;25.10;95.80
78904;DHT22;68291;49.602;8.722;2023-09-19T15:23:46;25.50;95.10
78904;DHT22;68291;49.602;8.722;2023-09-19T15:26:27;25.80;94.40
78904;DHT22;68291;49.602;8.722;2023-09-19T15:29:12;26.20;94.90
78904;DHT22;68291;49.602;8.722;2023-09-19T15:31:46;26.60;95.00
78904;DHT22;68291;49.602;8.722;2023-09-19T15:34:26;27.00;95.40
78904;DHT22;68291;49.602;8.722;2023-09-19T15:37:05;27.50;94.20
78904;DHT22;68291;49.602;8.722;2023-09-19T15:39:39;27.90;92.60
78904;DHT22;68291;49.602;8.722;2023-09-19T15:42:22;28.20;93.70
78904;DHT22;68291;49.602;8.722;2023-09-19T15:45:11;28.50;94.00
78904;DHT22;68291;49.602;8.722;2023-09-19T15:48:07;28.80;93.70
78904;DHT22;68291;49.602;8.722;2023-09-19T15:51:04;28.90;91.90
78904;DHT22;68291;49.602;8.722;2023-09-19T15:53:53;28.90;90.80
78904;DHT22;68291;49.602;8.722;2023-09-19T15:56:45;28.90;90.00
78904;DHT22;68291;49.602;8.722;2023-09-19T15:59:40;29.00;91.10
78904;DHT22;68291;49.602;8.722;2023-09-19T16:02:27;29.20;90.50
78904;DHT22;68291;49.602;8.722;2023-09-19T16:05:16;29.20;90.30
78904;DHT22;68291;49.602;8.722;2023-09-19T16:08:12;29.30;90.40
78904;DHT22;68291;49.602;8.722;2023-09-19T16:11:09;29.40;90.40
78904;DHT22;68291;49.602;8.722;2023-09-19T16:14:15;29.50;89.00
78904;DHT22;68291;49.602;8.722;2023-09-19T16:17:07;29.40;89.70
78904;DHT22;68291;49.602;8.722;2023-09-19T16:20:03;29.20;87.10
78904;DHT22;68291;49.602;8.722;2023-09-19T16:22:55;29.00;84.30
78904;DHT22;68291;49.602;8.722;2023-09-19T16:26:04;28.60;86.40
78904;DHT22;68291;49.602;8.722;2023-09-19T16:29:00;28.40;87.10
78904;DHT22;68291;49.602;8.722;2023-09-19T16:31:43;28.20;88.40
78904;DHT22;68291;49.602;8.722;2023-09-19T16:34:18;27.90;88.40
78904;DHT22;68291;49.602;8.722;2023-09-19T16:37:00;27.60;89.00
78904;DHT22;68291;49.602;8.722;2023-09-19T16:39:48;27.30;88.30
78904;DHT22;68291;49.602;8.722;2023-09-19T16:42:34;27.00;89.20
78904;DHT22;68291;49.602;8.722;2023-09-19T16:45:13;26.70;89.30
78904;DHT22;68291;49.602;8.722;2023-09-19T16:48:00;26.40;90.10
78904;DHT22;68291;49.602;8.722;2023-09-19T16:51:01;26.10;90.40
78904;DHT22;68291;49.602;8.722;2023-09-19T16:53:39;25.80;90.60
78904;DHT22;68291;49.602;8.722;2023-09-19T16:56:24;25.60;90.80
78904;DHT22;68291;49.602;8.722;2023-09-19T16:59:07;25.40;91.10
78904;DHT22;68291;49.602;8.722;2023-09-19T17:02:13;25.10;91.20
78904;DHT22;68291;49.602;8.722;2023-09-19T17:04:59;24.90;91.70
78904;DHT22;68291;49.602;8.722;2023-09-19T17:07:54;24.70;91.80
78904;DHT22;68291;49.602;8.722;2023-09-19T17:10:36;24.50;92.00
78904;DHT22;68291;49.602;8.722;2023-09-19T17:13:49;24.30;92.10
78904;DHT22;68291;49.602;8.722;2023-09-19T17:16:44;24.20;92.50
78904;DHT22;68291;49.602;8.722;2023-09-19T17:19:36;24.00;92.30
78904;DHT22;68291;49.602;8.722;2023-09-19T17:22:28;23.90;92.70
78904;DHT22;68291;49.602;8.722;2023-09-19T17:25:11;23.80;93.00
78904;DHT22;68291;49.602;8.722;2023-09-19T17:27:45;23.60;93.20
78904;DHT22;68291;49.602;8.722;2023-09-19T17:30:40;23.60;93.40
78904;DHT22;68291;49.602;8.722;2023-09-19T17:33:45;23.50;93.50
78904;DHT22;68291;49.602;8.722;2023-09-19T17:36:30;23.40;93.30
78904;DHT22;68291;49.602;8.722;2023-09-19T17:39:15;23.30;93.80
78904;DHT22;68291;49.602;8.722;2023-09-19T17:41:57;23.20;94.00
78904;DHT22;68291;49.602;8.722;2023-09-19T17:44:39;23.10;94.30
78904;DHT22;68291;49.602;8.722;2023-09-19T17:47:20;23.00;94.60
78904;DHT22;68291;49.602;8.722;2023-09-19T17:53:32;22.80;94.30
78904;DHT22;68291;49.602;8.722;2023-09-19T17:56:30;22.80;94.90
78904;DHT22;68291;49.602;8.722;2023-09-19T17:59:13;22.70;95.00
78904;DHT22;68291;49.602;8.722;2023-09-19T18:01:59;22.60;95.30
78904;DHT22;68291;49.602;8.722;2023-09-19T18:04:42;22.50;95.60
78904;DHT22;68291;49.602;8.722;2023-09-19T18:07:37;22.40;95.50
78904;DHT22;68291;49.602;8.722;2023-09-19T18:10:27;22.40;96.70
78904;DHT22;68291;49.602;8.722;2023-09-19T18:13:07;22.30;96.00
78904;DHT22;68291;49.602;8.722;2023-09-19T18:16:06;22.20;97.00
78904;DHT22;68291;49.602;8.722;2023-09-19T18:18:54;22.10;97.20